sensor_id;sensor_type;location;lat;lon;timestamp;pressure;altitude;pressure_sealevel;temperature;humidity
55538;BME280;41383;51.418;7.286;2022-12-10T00:01:21;99024.28;;;1.90;77.23
55538;BME280;41383;51.418;7.286;2022-12-10T00:03:47;99033.53;;;1.94;77.64
55538;BME280;41383;51.418;7.286;2022-12-10T00:06:15;99034.50;;;1.81;78.05
55538;BME280;41383;51.418;7.286;2022-12-10T00:08:41;99038.19;;;1.87;77.66
55538;BME280;41383;51.418;7.286;2022-12-10T00:11:10;99047.75;;;1.83;77.74
55538;BME280;41383;51.418;7.286;2022-12-10T00:13:37;99034.31;;;1.83;78.51
55538;BME280;41383;51.418;7.286;2022-12-10T00:16:05;99029.53;;;1.85;77.24
55538;BME280;41383;51.418;7.286;2022-12-10T00:18:31;99032.94;;;1.73;77.40
55538;BME280;41383;51.418;7.286;2022-12-10T00:20:56;99037.34;;;1.68;77.61
55538;BME280;41383;51.418;7.286;2022-12-10T00:23:22;99030.25;;;1.55;77.88
55538;BME280;41383;51.418;7.286;2022-12-10T00:25:47;99025.03;;;1.60;77.43
55538;BME280;41383;51.418;7.286;2022-12-10T00:28:13;99029.50;;;1.66;77.90
55538;BME280;41383;51.418;7.286;2022-12-10T00:30:38;99028.63;;;1.54;78.67
55538;BME280;41383;51.418;7.286;2022-12-10T00:33:03;99038.38;;;1.48;78.67
55538;BME280;41383;51.418;7.286;2022-12-10T00:35:29;99036.13;;;1.45;79.48
55538;BME280;41383;51.418;7.286;2022-12-10T00:37:54;99036.22;;;1.57;78.83
55538;BME280;41383;51.418;7.286;2022-12-10T00:40:20;99040.94;;;1.61;78.27
55538;BME280;41383;51.418;7.286;2022-12-10T00:42:46;99041.84;;;1.74;77.85
55538;BME280;41383;51.418;7.286;2022-12-10T00:45:11;99036.97;;;1.64;77.42
55538;BME280;41383;51.418;7.286;2022-12-10T00:47:36;99036.31;;;1.69;78.07
55538;BME280;41383;51.418;7.286;2022-12-10T00:50:02;99037.78;;;1.83;76.98
55538;BME280;41383;51.418;7.286;2022-12-10T00:52:27;99039.97;;;1.74;77.73
55538;BME280;41383;51.418;7.286;2022-12-10T00:54:52;99038.78;;;1.70;77.74
55538;BME280;41383;51.418;7.286;2022-12-10T00:57:18;99039.22;;;1.67;78.10
55538;BME280;41383;51.418;7.286;2022-12-10T00:59:43;99042.50;;;1.50;78.63
55538;BME280;41383;51.418;7.286;2022-12-10T01:02:08;99040.56;;;1.58;78.90
55538;BME280;41383;51.418;7.286;2022-12-10T01:04:33;99038.78;;;1.70;78.07
55538;BME280;41383;51.418;7.286;2022-12-10T01:06:59;99043.56;;;1.68;78.23
55538;BME280;41383;51.418;7.286;2022-12-10T01:09:29;99036.38;;;1.62;78.75
55538;BME280;41383;51.418;7.286;2022-12-10T01:11:56;99044.44;;;1.62;79.45
55538;BME280;41383;51.418;7.286;2022-12-10T01:14:25;99040.09;;;1.61;79.07
55538;BME280;41383;51.418;7.286;2022-12-10T01:16:53;99050.09;;;1.54;79.77
55538;BME280;41383;51.418;7.286;2022-12-10T01:19:19;99045.94;;;1.58;79.18
55538;BME280;41383;51.418;7.286;2022-12-10T01:21:45;99046.25;;;1.68;78.74
55538;BME280;41383;51.418;7.286;2022-12-10T01:24:14;99041.75;;;1.62;79.04
55538;BME280;41383;51.418;7.286;2022-12-10T01:26:39;99053.13;;;1.83;77.93
55538;BME280;41383;51.418;7.286;2022-12-10T01:29:04;99049.53;;;1.70;78.30
55538;BME280;41383;51.418;7.286;2022-12-10T01:31:33;99053.72;;;1.66;78.89
55538;BME280;41383;51.418;7.286;2022-12-10T01:33:59;99050.56;;;1.69;78.31
55538;BME280;41383;51.418;7.286;2022-12-10T01:36:32;99058.47;;;1.64;79.23
55538;BME280;41383;51.418;7.286;2022-12-10T01:38:58;99062.97;;;1.89;79.07
55538;BME280;41383;51.418;7.286;2022-12-10T01:41:26;99066.41;;;1.78;78.86
55538;BME280;41383;51.418;7.286;2022-12-10T01:43:55;99063.94;;;1.76;78.53
55538;BME280;41383;51.418;7.286;2022-12-10T01:46:21;99064.06;;;1.81;78.32
55538;BME280;41383;51.418;7.286;2022-12-10T01:48:47;99076.84;;;1.67;79.44
55538;BME280;41383;51.418;7.286;2022-12-10T01:51:14;99079.22;;;1.75;79.84
55538;BME280;41383;51.418;7.286;2022-12-10T01:53:41;99078.03;;;1.90;78.90
55538;BME280;41383;51.418;7.286;2022-12-10T01:56:09;99075.44;;;1.83;78.34
55538;BME280;41383;51.418;7.286;2022-12-10T01:58:35;99080.94;;;1.70;79.52
55538;BME280;41383;51.418;7.286;2022-12-10T02:06:56;99071.75;;;1.78;78.37
55538;BME280;41383;51.418;7.286;2022-12-10T02:09:35;99077.16;;;1.78;77.70
55538;BME280;41383;51.418;7.286;2022-12-10T02:15:16;99079.91;;;1.71;77.82
55538;BME280;41383;51.418;7.286;2022-12-10T02:20:18;99080.38;;;1.86;77.27
55538;BME280;41383;51.418;7.286;2022-12-10T02:22:58;99074.84;;;2.00;76.85
55538;BME280;41383;51.418;7.286;2022-12-10T02:25:37;99075.34;;;1.90;75.74
55538;BME280;41383;51.418;7.286;2022-12-10T02:30:38;99071.19;;;1.94;74.86
55538;BME280;41383;51.418;7.286;2022-12-10T02:33:04;99074.47;;;1.96;75.71
55538;BME280;41383;51.418;7.286;2022-12-10T02:35:33;99075.06;;;1.98;74.18
55538;BME280;41383;51.418;7.286;2022-12-10T02:38:09;99071.47;;;1.86;74.66
55538;BME280;41383;51.418;7.286;2022-12-10T02:40:37;99069.31;;;1.95;75.05
55538;BME280;41383;51.418;7.286;2022-12-10T02:43:03;99064.06;;;2.00;74.51
55538;BME280;41383;51.418;7.286;2022-12-10T02:45:29;99063.13;;;1.94;75.38
55538;BME280;41383;51.418;7.286;2022-12-10T02:47:58;99066.03;;;1.93;76.42
55538;BME280;41383;51.418;7.286;2022-12-10T02:50:24;99061.63;;;1.98;75.69
55538;BME280;41383;51.418;7.286;2022-12-10T02:52:50;99064.84;;;1.89;75.53
55538;BME280;41383;51.418;7.286;2022-12-10T02:55:16;99067.91;;;1.92;76.24
55538;BME280;41383;51.418;7.286;2022-12-10T02:58:09;99076.03;;;1.85;75.98
55538;BME280;41383;51.418;7.286;2022-12-10T03:00:47;99062.81;;;2.03;75.00
55538;BME280;41383;51.418;7.286;2022-12-10T03:03:32;99066.16;;;1.98;75.25
55538;BME280;41383;51.418;7.286;2022-12-10T03:06:07;99066.69;;;1.88;76.36
55538;BME280;41383;51.418;7.286;2022-12-10T03:08:50;99071.84;;;1.90;76.51
55538;BME280;41383;51.418;7.286;2022-12-10T03:11:22;99081.34;;;1.92;75.94
55538;BME280;41383;51.418;7.286;2022-12-10T03:14:13;99077.88;;;2.04;74.96
55538;BME280;41383;51.418;7.286;2022-12-10T03:16:42;99077.06;;;1.66;76.09
55538;BME280;41383;51.418;7.286;2022-12-10T03:19:14;99082.09;;;1.81;75.50
55538;BME280;41383;51.418;7.286;2022-12-10T03:21:41;99080.59;;;1.85;75.77
55538;BME280;41383;51.418;7.286;2022-12-10T03:24:09;99082.81;;;1.88;74.73
55538;BME280;41383;51.418;7.286;2022-12-10T03:26:37;99082.16;;;1.93;75.29
55538;BME280;41383;51.418;7.286;2022-12-10T03:29:06;99089.03;;;1.89;74.32
55538;BME280;41383;51.418;7.286;2022-12-10T03:31:33;99089.88;;;1.89;74.37
55538;BME280;41383;51.418;7.286;2022-12-10T03:34:00;99087.31;;;1.94;74.11
55538;BME280;41383;51.418;7.286;2022-12-10T03:36:27;99092.22;;;1.97;74.29
55538;BME280;41383;51.418;7.286;2022-12-10T03:38:53;99090.59;;;1.96;73.95
55538;BME280;41383;51.418;7.286;2022-12-10T03:41:18;99088.94;;;1.95;74.39
55538;BME280;41383;51.418;7.286;2022-12-10T03:43:54;99096.94;;;1.83;74.94
55538;BME280;41383;51.418;7.286;2022-12-10T03:46:21;99098.81;;;2.02;75.41
55538;BME280;41383;51.418;7.286;2022-12-10T03:48:47;99100.88;;;2.00;74.75
55538;BME280;41383;51.418;7.286;2022-12-10T03:51:12;99095.50;;;2.00;74.59
55538;BME280;41383;51.418;7.286;2022-12-10T03:53:37;99092.22;;;1.97;74.52
55538;BME280;41383;51.418;7.286;2022-12-10T03:56:02;99096.09;;;2.02;74.76
55538;BME280;41383;51.418;7.286;2022-12-10T03:58:28;99092.25;;;1.79;75.36
55538;BME280;41383;51.418;7.286;2022-12-10T04:00:53;99102.25;;;1.90;75.78
55538;BME280;41383;51.418;7.286;2022-12-10T04:03:18;99096.56;;;1.80;75.96
55538;BME280;41383;51.418;7.286;2022-12-10T04:05:43;99090.28;;;1.86;76.47
55538;BME280;41383;51.418;7.286;2022-12-10T04:08:09;99095.25;;;1.89;76.50
55538;BME280;41383;51.418;7.286;2022-12-10T04:10:37;99096.56;;;1.98;75.69
55538;BME280;41383;51.418;7.286;2022-12-10T04:13:02;99099.78;;;1.89;75.94
55538;BME280;41383;51.418;7.286;2022-12-10T04:15:56;99084.03;;;1.92;75.68
55538;BME280;41383;51.418;7.286;2022-12-10T04:18:40;99085.66;;;1.93;73.58
55538;BME280;41383;51.418;7.286;2022-12-10T04:21:05;99090.13;;;2.00;73.27
55538;BME280;41383;51.418;7.286;2022-12-10T04:23:49;99085.38;;;1.83;71.54
55538;BME280;41383;51.418;7.286;2022-12-10T04:26:33;99091.66;;;1.77;73.55
55538;BME280;41383;51.418;7.286;2022-12-10T04:29:18;99097.34;;;1.87;72.46
55538;BME280;41383;51.418;7.286;2022-12-10T04:31:43;99090.81;;;1.95;71.34
55538;BME280;41383;51.418;7.286;2022-12-10T04:34:09;99091.19;;;2.17;70.23
55538;BME280;41383;51.418;7.286;2022-12-10T04:36:34;99087.00;;;2.03;70.29
55538;BME280;41383;51.418;7.286;2022-12-10T04:38:59;99088.13;;;1.95;69.58
55538;BME280;41383;51.418;7.286;2022-12-10T04:41:24;99088.50;;;1.98;69.42
55538;BME280;41383;51.418;7.286;2022-12-10T04:43:50;99091.03;;;1.93;70.11
55538;BME280;41383;51.418;7.286;2022-12-10T04:46:16;99091.94;;;2.06;69.98
55538;BME280;41383;51.418;7.286;2022-12-10T04:48:42;99094.78;;;1.92;70.20
55538;BME280;41383;51.418;7.286;2022-12-10T04:51:07;99094.41;;;1.89;71.12
55538;BME280;41383;51.418;7.286;2022-12-10T04:53:32;99103.06;;;1.91;71.80
55538;BME280;41383;51.418;7.286;2022-12-10T04:55:57;99098.50;;;1.91;70.88
55538;BME280;41383;51.418;7.286;2022-12-10T04:58:23;99102.25;;;1.90;70.92
55538;BME280;41383;51.418;7.286;2022-12-10T05:00:48;99108.50;;;1.84;71.46
55538;BME280;41383;51.418;7.286;2022-12-10T05:03:13;99100.38;;;1.91;71.75
55538;BME280;41383;51.418;7.286;2022-12-10T05:05:38;99100.91;;;1.81;71.03
55538;BME280;41383;51.418;7.286;2022-12-10T05:08:04;99104.47;;;1.93;71.22
55538;BME280;41383;51.418;7.286;2022-12-10T05:10:30;99109.41;;;1.96;70.86
55538;BME280;41383;51.418;7.286;2022-12-10T05:12:55;99104.63;;;1.98;70.88
55538;BME280;41383;51.418;7.286;2022-12-10T05:15:21;99102.72;;;1.87;71.01
55538;BME280;41383;51.418;7.286;2022-12-10T05:17:46;99105.69;;;1.79;70.76
55538;BME280;41383;51.418;7.286;2022-12-10T05:20:11;99111.94;;;1.91;71.05
55538;BME280;41383;51.418;7.286;2022-12-10T05:22:37;99112.53;;;1.93;71.51
55538;BME280;41383;51.418;7.286;2022-12-10T05:25:20;99112.03;;;1.84;71.54
55538;BME280;41383;51.418;7.286;2022-12-10T05:27:46;99104.78;;;1.85;71.63
55538;BME280;41383;51.418;7.286;2022-12-10T05:30:11;99098.97;;;1.88;71.81
55538;BME280;41383;51.418;7.286;2022-12-10T05:32:37;99104.84;;;1.78;72.07
55538;BME280;41383;51.418;7.286;2022-12-10T05:35:03;99104.78;;;1.85;71.67
55538;BME280;41383;51.418;7.286;2022-12-10T05:37:29;99105.81;;;1.84;71.10
55538;BME280;41383;51.418;7.286;2022-12-10T05:39:54;99112.25;;;1.83;71.13
55538;BME280;41383;51.418;7.286;2022-12-10T05:42:19;99100.31;;;1.79;70.59
55538;BME280;41383;51.418;7.286;2022-12-10T05:44:45;99106.28;;;1.81;70.22
55538;BME280;41383;51.418;7.286;2022-12-10T05:47:10;99111.19;;;1.84;71.50
55538;BME280;41383;51.418;7.286;2022-12-10T05:49:35;99113.47;;;1.87;70.65
55538;BME280;41383;51.418;7.286;2022-12-10T05:52:01;99112.41;;;1.88;70.83
55538;BME280;41383;51.418;7.286;2022-12-10T05:54:26;99113.66;;;1.85;70.53
55538;BME280;41383;51.418;7.286;2022-12-10T05:56:51;99109.56;;;1.83;70.88
55538;BME280;41383;51.418;7.286;2022-12-10T05:59:16;99110.53;;;1.70;70.81
55538;BME280;41383;51.418;7.286;2022-12-10T06:01:42;99108.88;;;1.88;69.92
55538;BME280;41383;51.418;7.286;2022-12-10T06:04:07;99119.44;;;1.89;69.76
55538;BME280;41383;51.418;7.286;2022-12-10T06:06:37;99111.66;;;2.00;69.64
55538;BME280;41383;51.418;7.286;2022-12-10T06:09:03;99116.28;;;1.92;68.69
55538;BME280;41383;51.418;7.286;2022-12-10T06:11:29;99105.69;;;1.79;69.10
55538;BME280;41383;51.418;7.286;2022-12-10T06:13:56;99121.34;;;1.82;67.57
55538;BME280;41383;51.418;7.286;2022-12-10T06:16:22;99112.97;;;1.71;68.99
55538;BME280;41383;51.418;7.286;2022-12-10T06:18:48;99123.31;;;1.74;68.60
55538;BME280;41383;51.418;7.286;2022-12-10T06:21:15;99115.97;;;1.82;67.84
55538;BME280;41383;51.418;7.286;2022-12-10T06:23:41;99124.78;;;1.70;68.35
55538;BME280;41383;51.418;7.286;2022-12-10T06:26:08;99119.97;;;1.54;69.52
55538;BME280;41383;51.418;7.286;2022-12-10T06:28:34;99123.81;;;1.39;69.92
55538;BME280;41383;51.418;7.286;2022-12-10T06:30:59;99110.88;;;1.73;68.31
55538;BME280;41383;51.418;7.286;2022-12-10T06:33:25;99119.69;;;1.36;69.32
55538;BME280;41383;51.418;7.286;2022-12-10T06:35:51;99124.53;;;1.27;70.31
55538;BME280;41383;51.418;7.286;2022-12-10T06:38:16;99129.03;;;1.34;69.50
55538;BME280;41383;51.418;7.286;2022-12-10T06:40:41;99122.72;;;1.21;69.82
55538;BME280;41383;51.418;7.286;2022-12-10T06:43:07;99121.63;;;1.29;70.64
55538;BME280;41383;51.418;7.286;2022-12-10T06:45:32;99120.63;;;1.23;70.22
55538;BME280;41383;51.418;7.286;2022-12-10T06:47:57;99132.88;;;1.19;71.45
55538;BME280;41383;51.418;7.286;2022-12-10T06:50:22;99129.56;;;1.17;71.50
55538;BME280;41383;51.418;7.286;2022-12-10T06:52:49;99129.94;;;1.21;70.44
55538;BME280;41383;51.418;7.286;2022-12-10T06:55:15;99124.81;;;1.19;70.99
55538;BME280;41383;51.418;7.286;2022-12-10T06:57:41;99143.00;;;1.17;71.09
55538;BME280;41383;51.418;7.286;2022-12-10T07:00:06;99139.31;;;1.11;71.45
55538;BME280;41383;51.418;7.286;2022-12-10T07:02:35;99141.81;;;1.06;70.93
55538;BME280;41383;51.418;7.286;2022-12-10T07:05:00;99151.78;;;0.99;71.42
55538;BME280;41383;51.418;7.286;2022-12-10T07:07:25;99145.19;;;1.01;71.39
55538;BME280;41383;51.418;7.286;2022-12-10T07:09:50;99149.28;;;1.04;70.88
55538;BME280;41383;51.418;7.286;2022-12-10T07:12:16;99149.69;;;1.08;70.69
55538;BME280;41383;51.418;7.286;2022-12-10T07:14:41;99145.78;;;1.03;71.11
55538;BME280;41383;51.418;7.286;2022-12-10T07:17:06;99160.19;;;1.09;70.40
55538;BME280;41383;51.418;7.286;2022-12-10T07:19:31;99164.13;;;1.07;70.04
55538;BME280;41383;51.418;7.286;2022-12-10T07:21:57;99163.63;;;0.91;71.35
55538;BME280;41383;51.418;7.286;2022-12-10T07:24:22;99160.53;;;0.87;71.05
55538;BME280;41383;51.418;7.286;2022-12-10T07:26:47;99162.75;;;0.97;70.68
55538;BME280;41383;51.418;7.286;2022-12-10T07:29:19;99169.59;;;0.93;70.79
55538;BME280;41383;51.418;7.286;2022-12-10T07:31:45;99165.09;;;0.87;71.23
55538;BME280;41383;51.418;7.286;2022-12-10T07:34:11;99172.66;;;0.97;71.07
55538;BME280;41383;51.418;7.286;2022-12-10T07:36:37;99181.22;;;0.80;71.90
55538;BME280;41383;51.418;7.286;2022-12-10T07:39:05;99177.88;;;0.91;71.06
55538;BME280;41383;51.418;7.286;2022-12-10T07:41:30;99176.03;;;0.85;71.38
55538;BME280;41383;51.418;7.286;2022-12-10T07:43:55;99172.69;;;0.90;71.29
55538;BME280;41383;51.418;7.286;2022-12-10T07:46:23;99172.94;;;0.81;72.14
55538;BME280;41383;51.418;7.286;2022-12-10T07:48:49;99172.66;;;0.97;71.41
55538;BME280;41383;51.418;7.286;2022-12-10T07:51:15;99181.97;;;0.94;71.34
55538;BME280;41383;51.418;7.286;2022-12-10T07:53:42;99178.91;;;0.84;71.92
55538;BME280;41383;51.418;7.286;2022-12-10T07:56:08;99183.88;;;0.87;71.70
55538;BME280;41383;51.418;7.286;2022-12-10T07:58:33;99181.19;;;0.87;71.98
55538;BME280;41383;51.418;7.286;2022-12-10T08:00:59;99187.59;;;0.86;71.95
55538;BME280;41383;51.418;7.286;2022-12-10T08:03:30;99191.53;;;0.83;71.92
55538;BME280;41383;51.418;7.286;2022-12-10T08:06:07;99197.72;;;0.84;71.84
55538;BME280;41383;51.418;7.286;2022-12-10T08:08:34;99196.22;;;0.95;72.03
55538;BME280;41383;51.418;7.286;2022-12-10T08:11:00;99205.56;;;0.85;72.65
55538;BME280;41383;51.418;7.286;2022-12-10T08:13:26;99198.97;;;0.81;72.56
55538;BME280;41383;51.418;7.286;2022-12-10T08:15:51;99200.63;;;0.82;72.60
55538;BME280;41383;51.418;7.286;2022-12-10T08:18:17;99205.19;;;0.75;72.75
55538;BME280;41383;51.418;7.286;2022-12-10T08:20:42;99214.22;;;0.87;73.42
55538;BME280;41383;51.418;7.286;2022-12-10T08:23:07;99217.56;;;0.83;72.81
55538;BME280;41383;51.418;7.286;2022-12-10T08:25:33;99217.56;;;0.83;73.31
55538;BME280;41383;51.418;7.286;2022-12-10T08:27:58;99214.84;;;0.89;73.46
55538;BME280;41383;51.418;7.286;2022-12-10T08:30:25;99221.63;;;0.92;73.03
55538;BME280;41383;51.418;7.286;2022-12-10T08:32:50;99222.44;;;0.99;72.89
55538;BME280;41383;51.418;7.286;2022-12-10T08:35:15;99223.06;;;0.95;73.01
55538;BME280;41383;51.418;7.286;2022-12-10T08:37:41;99216.22;;;1.06;72.84
55538;BME280;41383;51.418;7.286;2022-12-10T08:40:07;99224.00;;;1.14;73.03
55538;BME280;41383;51.418;7.286;2022-12-10T08:42:32;99219.13;;;0.97;73.90
55538;BME280;41383;51.418;7.286;2022-12-10T08:44:58;99234.56;;;1.09;73.57
55538;BME280;41383;51.418;7.286;2022-12-10T08:47:23;99229.41;;;1.07;73.72
55538;BME280;41383;51.418;7.286;2022-12-10T08:49:48;99235.31;;;1.23;72.99
55538;BME280;41383;51.418;7.286;2022-12-10T08:52:13;99238.47;;;1.13;73.41
55538;BME280;41383;51.418;7.286;2022-12-10T08:54:39;99237.69;;;1.06;74.13
55538;BME280;41383;51.418;7.286;2022-12-10T08:57:04;99249.81;;;1.15;73.85
55538;BME280;41383;51.418;7.286;2022-12-10T08:59:29;99249.69;;;0.96;74.84
55538;BME280;41383;51.418;7.286;2022-12-10T09:01:54;99256.28;;;1.00;74.78
55538;BME280;41383;51.418;7.286;2022-12-10T09:04:20;99254.19;;;1.09;74.71
55538;BME280;41383;51.418;7.286;2022-12-10T09:06:45;99254.03;;;0.97;74.38
55538;BME280;41383;51.418;7.286;2022-12-10T09:09:11;99247.75;;;0.71;75.64
55538;BME280;41383;51.418;7.286;2022-12-10T09:11:36;99259.81;;;0.94;74.74
55538;BME280;41383;51.418;7.286;2022-12-10T09:14:01;99254.75;;;0.72;74.86
55538;BME280;41383;51.418;7.286;2022-12-10T09:16:32;99261.81;;;0.60;76.66
55538;BME280;41383;51.418;7.286;2022-12-10T09:18:58;99272.09;;;0.76;76.04
55538;BME280;41383;51.418;7.286;2022-12-10T09:21:24;99272.63;;;0.99;74.93
55538;BME280;41383;51.418;7.286;2022-12-10T09:23:50;99273.59;;;1.11;74.54
55538;BME280;41383;51.418;7.286;2022-12-10T09:26:16;99273.31;;;0.80;75.67
55538;BME280;41383;51.418;7.286;2022-12-10T09:28:43;99271.22;;;0.89;75.23
55538;BME280;41383;51.418;7.286;2022-12-10T09:31:09;99273.63;;;1.04;75.18
55538;BME280;41383;51.418;7.286;2022-12-10T09:33:35;99284.34;;;1.04;74.62
55538;BME280;41383;51.418;7.286;2022-12-10T09:36:05;99283.09;;;1.14;73.72
55538;BME280;41383;51.418;7.286;2022-12-10T09:38:33;99282.03;;;0.69;74.50
55538;BME280;41383;51.418;7.286;2022-12-10T09:41:01;99279.22;;;0.23;75.64
55538;BME280;41383;51.418;7.286;2022-12-10T09:49:11;99285.59;;;0.42;75.62
55538;BME280;41383;51.418;7.286;2022-12-10T09:51:39;99281.03;;;0.43;76.34
55538;BME280;41383;51.418;7.286;2022-12-10T09:56:41;99283.94;;;0.48;76.65
55538;BME280;41383;51.418;7.286;2022-12-10T09:59:23;99282.44;;;0.66;75.87
55538;BME280;41383;51.418;7.286;2022-12-10T10:04:46;99278.25;;;0.84;75.02
55538;BME280;41383;51.418;7.286;2022-12-10T10:07:21;99282.50;;;1.05;74.40
55538;BME280;41383;51.418;7.286;2022-12-10T10:09:47;99281.88;;;1.03;74.38
55538;BME280;41383;51.418;7.286;2022-12-10T10:12:13;99281.41;;;0.67;74.45
55538;BME280;41383;51.418;7.286;2022-12-10T10:14:43;99281.53;;;0.86;74.43
55538;BME280;41383;51.418;7.286;2022-12-10T10:17:14;99278.84;;;0.86;75.12
55538;BME280;41383;51.418;7.286;2022-12-10T10:19:42;99274.91;;;0.88;75.03
55538;BME280;41383;51.418;7.286;2022-12-10T10:22:10;99278.50;;;1.21;73.31
55538;BME280;41383;51.418;7.286;2022-12-10T10:24:39;99285.34;;;1.17;74.44
55538;BME280;41383;51.418;7.286;2022-12-10T10:27:20;99280.94;;;1.30;73.50
55538;BME280;41383;51.418;7.286;2022-12-10T10:29:49;99270.28;;;1.09;74.45
55538;BME280;41383;51.418;7.286;2022-12-10T10:32:43;99269.38;;;1.22;73.97
55538;BME280;41383;51.418;7.286;2022-12-10T10:35:27;99272.75;;;1.18;74.55
55538;BME280;41383;51.418;7.286;2022-12-10T10:38:06;99273.88;;;1.35;73.73
55538;BME280;41383;51.418;7.286;2022-12-10T10:40:39;99278.97;;;1.04;74.37
55538;BME280;41383;51.418;7.286;2022-12-10T10:43:05;99287.16;;;1.23;73.64
55538;BME280;41383;51.418;7.286;2022-12-10T10:45:37;99282.63;;;1.24;74.09
55538;BME280;41383;51.418;7.286;2022-12-10T10:48:15;99286.25;;;1.36;73.17
55538;BME280;41383;51.418;7.286;2022-12-10T10:50:46;99293.66;;;1.48;73.27
55538;BME280;41383;51.418;7.286;2022-12-10T10:53:52;99283.88;;;1.54;73.00
55538;BME280;41383;51.418;7.286;2022-12-10T10:56:20;99290.38;;;1.39;72.22
55538;BME280;41383;51.418;7.286;2022-12-10T11:01:24;99290.75;;;1.43;73.90
55538;BME280;41383;51.418;7.286;2022-12-10T11:03:55;99281.28;;;1.40;73.69
55538;BME280;41383;51.418;7.286;2022-12-10T11:06:22;99277.81;;;1.33;73.99
55538;BME280;41383;51.418;7.286;2022-12-10T11:08:47;99278.78;;;1.45;73.76
55538;BME280;41383;51.418;7.286;2022-12-10T11:11:22;99282.53;;;1.37;73.68
55538;BME280;41383;51.418;7.286;2022-12-10T11:13:49;99289.16;;;1.35;73.80
55538;BME280;41383;51.418;7.286;2022-12-10T11:18:43;99286.00;;;1.45;73.90
55538;BME280;41383;51.418;7.286;2022-12-10T11:21:19;99293.88;;;1.46;73.75
55538;BME280;41383;51.418;7.286;2022-12-10T11:23:48;99291.91;;;1.60;73.12
55538;BME280;41383;51.418;7.286;2022-12-10T11:34:58;99272.28;;;1.60;73.19
55538;BME280;41383;51.418;7.286;2022-12-10T11:40:34;99291.47;;;1.63;73.98
55538;BME280;41383;51.418;7.286;2022-12-10T11:49:00;99278.69;;;1.59;74.16
55538;BME280;41383;51.418;7.286;2022-12-10T11:57:03;99284.16;;;1.45;73.84
55538;BME280;41383;51.418;7.286;2022-12-10T11:59:43;99277.31;;;1.49;74.64
55538;BME280;41383;51.418;7.286;2022-12-10T12:07:45;99288.91;;;1.75;73.35
55538;BME280;41383;51.418;7.286;2022-12-10T12:13:02;99282.31;;;1.71;73.84
55538;BME280;41383;51.418;7.286;2022-12-10T12:15:49;99278.59;;;1.72;73.97
55538;BME280;41383;51.418;7.286;2022-12-10T12:18:21;99284.06;;;1.59;74.88
55538;BME280;41383;51.418;7.286;2022-12-10T12:20:53;99289.63;;;1.64;75.09
55538;BME280;41383;51.418;7.286;2022-12-10T12:23:24;99284.41;;;1.69;73.33
55538;BME280;41383;51.418;7.286;2022-12-10T12:25:56;99290.03;;;1.61;73.95
55538;BME280;41383;51.418;7.286;2022-12-10T12:28:37;99282.44;;;1.83;72.82
55538;BME280;41383;51.418;7.286;2022-12-10T12:31:09;99281.34;;;1.91;72.91
55538;BME280;41383;51.418;7.286;2022-12-10T12:33:49;99289.59;;;1.96;72.51
55538;BME280;41383;51.418;7.286;2022-12-10T12:36:25;99286.72;;;1.91;73.03
55538;BME280;41383;51.418;7.286;2022-12-10T12:39:11;99291.91;;;1.60;73.15
55538;BME280;41383;51.418;7.286;2022-12-10T12:41:59;99286.06;;;1.70;72.84
55538;BME280;41383;51.418;7.286;2022-12-10T12:44:38;99287.69;;;1.71;73.51
55538;BME280;41383;51.418;7.286;2022-12-10T12:50:42;99286.81;;;1.78;73.39
55538;BME280;41383;51.418;7.286;2022-12-10T12:53:11;99289.81;;;1.95;73.20
55538;BME280;41383;51.418;7.286;2022-12-10T12:58:16;99293.66;;;1.73;73.79
55538;BME280;41383;51.418;7.286;2022-12-10T13:00:46;99292.66;;;1.74;74.12
55538;BME280;41383;51.418;7.286;2022-12-10T13:03:36;99297.56;;;1.78;74.11
55538;BME280;41383;51.418;7.286;2022-12-10T13:06:22;99296.38;;;1.73;74.31
55538;BME280;41383;51.418;7.286;2022-12-10T13:08:52;99289.63;;;1.90;73.98
55538;BME280;41383;51.418;7.286;2022-12-10T13:27:32;99286.25;;;2.01;72.18
55538;BME280;41383;51.418;7.286;2022-12-10T13:32:53;99298.88;;;1.68;73.53
55538;BME280;41383;51.418;7.286;2022-12-10T13:35:30;99290.25;;;1.59;74.27
55538;BME280;41383;51.418;7.286;2022-12-10T13:38:02;99290.91;;;1.87;73.36
55538;BME280;41383;51.418;7.286;2022-12-10T13:46:24;99303.03;;;1.96;73.40
55538;BME280;41383;51.418;7.286;2022-12-10T13:48:52;99301.38;;;1.95;73.58
55538;BME280;41383;51.418;7.286;2022-12-10T13:51:36;99307.50;;;1.77;74.23
55538;BME280;41383;51.418;7.286;2022-12-10T13:54:18;99302.03;;;1.91;73.03
55538;BME280;41383;51.418;7.286;2022-12-10T14:08:00;99296.59;;;1.97;73.77
55538;BME280;41383;51.418;7.286;2022-12-10T14:10:31;99309.88;;;1.92;73.42
55538;BME280;41383;51.418;7.286;2022-12-10T14:12:59;99307.84;;;1.88;74.01
55538;BME280;41383;51.418;7.286;2022-12-10T14:15:26;99311.94;;;1.97;72.99
55538;BME280;41383;51.418;7.286;2022-12-10T14:18:22;99309.13;;;1.85;73.51
55538;BME280;41383;51.418;7.286;2022-12-10T14:20:49;99312.22;;;1.82;74.05
55538;BME280;41383;51.418;7.286;2022-12-10T14:23:32;99307.81;;;1.94;73.46
55538;BME280;41383;51.418;7.286;2022-12-10T14:25:57;99311.59;;;2.12;72.78
55538;BME280;41383;51.418;7.286;2022-12-10T14:28:23;99303.25;;;1.95;74.13
55538;BME280;41383;51.418;7.286;2022-12-10T14:30:49;99301.53;;;2.01;73.11
55538;BME280;41383;51.418;7.286;2022-12-10T14:33:17;99306.13;;;1.93;73.50
55538;BME280;41383;51.418;7.286;2022-12-10T14:35:47;99308.31;;;1.78;73.68
55538;BME280;41383;51.418;7.286;2022-12-10T14:38:19;99310.34;;;1.89;73.21
55538;BME280;41383;51.418;7.286;2022-12-10T14:40:46;99318.09;;;1.97;73.13
55538;BME280;41383;51.418;7.286;2022-12-10T14:43:16;99326.00;;;1.92;73.09
55538;BME280;41383;51.418;7.286;2022-12-10T14:45:49;99321.53;;;1.79;73.85
55538;BME280;41383;51.418;7.286;2022-12-10T14:48:16;99330.63;;;1.85;73.70
55538;BME280;41383;51.418;7.286;2022-12-10T14:50:43;99334.00;;;1.73;74.48
55538;BME280;41383;51.418;7.286;2022-12-10T14:53:17;99333.47;;;1.90;73.49
55538;BME280;41383;51.418;7.286;2022-12-10T14:55:49;99341.69;;;1.95;73.38
55538;BME280;41383;51.418;7.286;2022-12-10T14:58:28;99337.63;;;1.86;73.81
55538;BME280;41383;51.418;7.286;2022-12-10T15:00:56;99330.94;;;1.95;74.13
55538;BME280;41383;51.418;7.286;2022-12-10T15:03:32;99339.72;;;1.84;74.06